sensor_id;sensor_type;location;lat;lon;timestamp;temperature;humidity
44477;DHT22;30180;44.788;10.366;2023-07-30T00:00:44;26.20;65.90
44477;DHT22;30180;44.788;10.366;2023-07-30T00:03:12;26.20;65.90
44477;DHT22;30180;44.788;10.366;2023-07-30T00:05:40;26.20;66.00
44477;DHT22;30180;44.788;10.366;2023-07-30T00:08:08;26.30;66.00
44477;DHT22;30180;44.788;10.366;2023-07-30T00:10:38;26.20;65.90
44477;DHT22;30180;44.788;10.366;2023-07-30T00:13:06;26.20;65.90
44477;DHT22;30180;44.788;10.366;2023-07-30T00:15:34;26.20;66.60
44477;DHT22;30180;44.788;10.366;2023-07-30T00:18:03;26.30;66.00
44477;DHT22;30180;44.788;10.366;2023-07-30T00:20:31;26.30;66.00
44477;DHT22;30180;44.788;10.366;2023-07-30T00:23:01;26.30;66.00
44477;DHT22;30180;44.788;10.366;2023-07-30T00:25:30;26.20;65.90
44477;DHT22;30180;44.788;10.366;2023-07-30T00:27:59;26.20;65.90
44477;DHT22;30180;44.788;10.366;2023-07-30T00:30:28;26.30;66.00
44477;DHT22;30180;44.788;10.366;2023-07-30T00:32:56;26.30;66.00
44477;DHT22;30180;44.788;10.366;2023-07-30T00:35:24;26.30;66.00
44477;DHT22;30180;44.788;10.366;2023-07-30T00:37:52;26.20;65.90
44477;DHT22;30180;44.788;10.366;2023-07-30T00:40:21;26.30;66.00
44477;DHT22;30180;44.788;10.366;2023-07-30T00:42:49;26.20;65.90
44477;DHT22;30180;44.788;10.366;2023-07-30T00:45:19;26.30;66.00
44477;DHT22;30180;44.788;10.366;2023-07-30T00:47:47;26.20;65.90
44477;DHT22;30180;44.788;10.366;2023-07-30T00:50:16;26.30;66.00
44477;DHT22;30180;44.788;10.366;2023-07-30T00:52:45;26.30;66.00
44477;DHT22;30180;44.788;10.366;2023-07-30T00:55:13;26.20;65.90
44477;DHT22;30180;44.788;10.366;2023-07-30T00:57:43;26.20;65.90
44477;DHT22;30180;44.788;10.366;2023-07-30T01:00:13;26.30;66.00
44477;DHT22;30180;44.788;10.366;2023-07-30T01:02:43;26.30;66.00
44477;DHT22;30180;44.788;10.366;2023-07-30T01:05:11;26.20;65.90
44477;DHT22;30180;44.788;10.366;2023-07-30T01:07:39;26.20;65.90
44477;DHT22;30180;44.788;10.366;2023-07-30T01:10:08;26.30;66.00
44477;DHT22;30180;44.788;10.366;2023-07-30T01:12:37;26.30;65.90
44477;DHT22;30180;44.788;10.366;2023-07-30T01:15:07;26.30;66.00
44477;DHT22;30180;44.788;10.366;2023-07-30T01:17:36;26.30;66.00
44477;DHT22;30180;44.788;10.366;2023-07-30T01:20:07;26.30;65.90
44477;DHT22;30180;44.788;10.366;2023-07-30T01:22:37;26.30;65.90
44477;DHT22;30180;44.788;10.366;2023-07-30T01:25:06;26.30;65.90
44477;DHT22;30180;44.788;10.366;2023-07-30T01:27:38;26.20;65.90
44477;DHT22;30180;44.788;10.366;2023-07-30T01:30:17;26.20;65.80
44477;DHT22;30180;44.788;10.366;2023-07-30T01:32:47;26.30;65.90
44477;DHT22;30180;44.788;10.366;2023-07-30T01:35:18;26.30;65.90
44477;DHT22;30180;44.788;10.366;2023-07-30T01:37:50;26.30;65.90
44477;DHT22;30180;44.788;10.366;2023-07-30T01:40:20;26.20;65.80
44477;DHT22;30180;44.788;10.366;2023-07-30T01:42:49;26.20;65.80
44477;DHT22;30180;44.788;10.366;2023-07-30T01:45:17;26.20;65.80
44477;DHT22;30180;44.788;10.366;2023-07-30T01:47:46;26.20;65.90
44477;DHT22;30180;44.788;10.366;2023-07-30T01:50:14;26.20;65.80
44477;DHT22;30180;44.788;10.366;2023-07-30T01:52:42;26.20;65.80
44477;DHT22;30180;44.788;10.366;2023-07-30T01:55:12;26.20;65.80
44477;DHT22;30180;44.788;10.366;2023-07-30T01:57:40;26.30;65.90
44477;DHT22;30180;44.788;10.366;2023-07-30T02:00:09;26.30;65.90
44477;DHT22;30180;44.788;10.366;2023-07-30T02:02:38;26.20;65.80
44477;DHT22;30180;44.788;10.366;2023-07-30T02:05:06;26.20;65.80
44477;DHT22;30180;44.788;10.366;2023-07-30T02:07:34;26.20;65.80
44477;DHT22;30180;44.788;10.366;2023-07-30T02:10:03;26.30;65.90
44477;DHT22;30180;44.788;10.366;2023-07-30T02:12:33;26.30;65.90
44477;DHT22;30180;44.788;10.366;2023-07-30T02:15:01;26.20;65.80
44477;DHT22;30180;44.788;10.366;2023-07-30T02:17:29;26.30;65.90
44477;DHT22;30180;44.788;10.366;2023-07-30T02:19:58;26.30;65.90
44477;DHT22;30180;44.788;10.366;2023-07-30T02:22:26;26.30;65.90
44477;DHT22;30180;44.788;10.366;2023-07-30T02:24:54;26.30;65.90
44477;DHT22;30180;44.788;10.366;2023-07-30T02:27:24;26.20;65.80
44477;DHT22;30180;44.788;10.366;2023-07-30T02:29:53;26.30;65.90
44477;DHT22;30180;44.788;10.366;2023-07-30T02:32:22;26.20;65.80
44477;DHT22;30180;44.788;10.366;2023-07-30T02:34:50;26.20;65.80
44477;DHT22;30180;44.788;10.366;2023-07-30T02:37:18;26.20;65.80
44477;DHT22;30180;44.788;10.366;2023-07-30T02:39:46;26.30;65.90
44477;DHT22;30180;44.788;10.366;2023-07-30T02:42:15;26.20;65.80
44477;DHT22;30180;44.788;10.366;2023-07-30T02:44:43;26.20;65.80
44477;DHT22;30180;44.788;10.366;2023-07-30T02:47:12;26.30;65.80
44477;DHT22;30180;44.788;10.366;2023-07-30T02:49:41;26.20;65.80
44477;DHT22;30180;44.788;10.366;2023-07-30T02:52:09;26.20;65.80
44477;DHT22;30180;44.788;10.366;2023-07-30T02:54:37;26.20;65.80
44477;DHT22;30180;44.788;10.366;2023-07-30T02:57:05;26.20;65.80
44477;DHT22;30180;44.788;10.366;2023-07-30T02:59:34;26.30;65.80
44477;DHT22;30180;44.788;10.366;2023-07-30T03:02:04;26.30;65.80
44477;DHT22;30180;44.788;10.366;2023-07-30T03:04:34;26.30;65.80
44477;DHT22;30180;44.788;10.366;2023-07-30T03:07:03;26.30;65.90
44477;DHT22;30180;44.788;10.366;2023-07-30T03:09:31;26.20;65.80
44477;DHT22;30180;44.788;10.366;2023-07-30T03:11:59;26.20;65.80
44477;DHT22;30180;44.788;10.366;2023-07-30T03:14:29;26.30;65.80
44477;DHT22;30180;44.788;10.366;2023-07-30T03:16:57;26.30;65.80
44477;DHT22;30180;44.788;10.366;2023-07-30T03:19:25;26.30;65.80
44477;DHT22;30180;44.788;10.366;2023-07-30T03:21:55;26.20;65.70
44477;DHT22;30180;44.788;10.366;2023-07-30T03:24:24;26.30;65.80
44477;DHT22;30180;44.788;10.366;2023-07-30T03:26:52;26.20;65.80
44477;DHT22;30180;44.788;10.366;2023-07-30T03:29:20;26.20;65.70
44477;DHT22;30180;44.788;10.366;2023-07-30T03:31:49;26.20;65.80
44477;DHT22;30180;44.788;10.366;2023-07-30T03:34:17;26.20;65.70
44477;DHT22;30180;44.788;10.366;2023-07-30T03:36:46;26.20;65.70
44477;DHT22;30180;44.788;10.366;2023-07-30T03:39:15;26.20;65.70
44477;DHT22;30180;44.788;10.366;2023-07-30T03:41:43;26.20;65.70
44477;DHT22;30180;44.788;10.366;2023-07-30T03:44:12;26.20;65.70
44477;DHT22;30180;44.788;10.366;2023-07-30T03:46:40;26.20;65.70
44477;DHT22;30180;44.788;10.366;2023-07-30T03:49:08;26.20;65.70
44477;DHT22;30180;44.788;10.366;2023-07-30T03:51:36;26.20;65.70
44477;DHT22;30180;44.788;10.366;2023-07-30T03:54:06;26.20;65.80
44477;DHT22;30180;44.788;10.366;2023-07-30T03:56:35;26.20;65.70
44477;DHT22;30180;44.788;10.366;2023-07-30T03:59:03;26.20;65.70
44477;DHT22;30180;44.788;10.366;2023-07-30T04:01:31;26.20;65.70
44477;DHT22;30180;44.788;10.366;2023-07-30T04:04:01;26.20;65.70
44477;DHT22;30180;44.788;10.366;2023-07-30T04:06:29;26.20;65.70
44477;DHT22;30180;44.788;10.366;2023-07-30T04:08:58;26.20;65.70
44477;DHT22;30180;44.788;10.366;2023-07-30T04:11:26;26.20;65.70
44477;DHT22;30180;44.788;10.366;2023-07-30T04:13:55;26.20;65.70
44477;DHT22;30180;44.788;10.366;2023-07-30T04:16:24;26.20;65.70
44477;DHT22;30180;44.788;10.366;2023-07-30T04:18:52;26.20;65.70
44477;DHT22;30180;44.788;10.366;2023-07-30T04:21:20;26.30;65.80
44477;DHT22;30180;44.788;10.366;2023-07-30T04:23:48;26.30;65.80
44477;DHT22;30180;44.788;10.366;2023-07-30T04:26:17;26.20;65.70
44477;DHT22;30180;44.788;10.366;2023-07-30T04:28:45;26.20;65.70
44477;DHT22;30180;44.788;10.366;2023-07-30T04:31:15;26.20;65.70
44477;DHT22;30180;44.788;10.366;2023-07-30T04:33:43;26.30;65.80
44477;DHT22;30180;44.788;10.366;2023-07-30T04:36:12;26.20;65.70
44477;DHT22;30180;44.788;10.366;2023-07-30T04:38:40;26.20;65.70
44477;DHT22;30180;44.788;10.366;2023-07-30T04:41:08;26.20;65.70
44477;DHT22;30180;44.788;10.366;2023-07-30T04:43:36;26.20;65.70
44477;DHT22;30180;44.788;10.366;2023-07-30T04:46:05;26.20;65.70
44477;DHT22;30180;44.788;10.366;2023-07-30T04:48:36;26.20;65.50
44477;DHT22;30180;44.788;10.366;2023-07-30T04:51:05;26.20;65.40
44477;DHT22;30180;44.788;10.366;2023-07-30T04:53:33;26.10;65.30
44477;DHT22;30180;44.788;10.366;2023-07-30T04:56:01;26.10;65.30
44477;DHT22;30180;44.788;10.366;2023-07-30T04:58:29;26.10;65.30
44477;DHT22;30180;44.788;10.366;2023-07-30T05:00:58;26.10;65.30
44477;DHT22;30180;44.788;10.366;2023-07-30T05:03:26;26.00;65.20
44477;DHT22;30180;44.788;10.366;2023-07-30T05:05:56;26.00;65.20
44477;DHT22;30180;44.788;10.366;2023-07-30T05:08:24;26.00;65.30
44477;DHT22;30180;44.788;10.366;2023-07-30T05:10:52;26.00;65.20
44477;DHT22;30180;44.788;10.366;2023-07-30T05:13:21;25.90;65.10
44477;DHT22;30180;44.788;10.366;2023-07-30T05:15:49;25.90;65.10
44477;DHT22;30180;44.788;10.366;2023-07-30T05:18:17;25.90;65.10
44477;DHT22;30180;44.788;10.366;2023-07-30T05:20:46;25.90;65.10
44477;DHT22;30180;44.788;10.366;2023-07-30T05:23:16;25.80;65.10
44477;DHT22;30180;44.788;10.366;2023-07-30T05:25:44;25.80;65.00
44477;DHT22;30180;44.788;10.366;2023-07-30T05:28:12;25.80;65.00
44477;DHT22;30180;44.788;10.366;2023-07-30T05:30:41;25.70;64.90
44477;DHT22;30180;44.788;10.366;2023-07-30T05:33:09;25.70;65.00
44477;DHT22;30180;44.788;10.366;2023-07-30T05:35:38;25.70;65.10
44477;DHT22;30180;44.788;10.366;2023-07-30T05:38:07;25.70;65.10
44477;DHT22;30180;44.788;10.366;2023-07-30T05:40:37;25.70;65.20
44477;DHT22;30180;44.788;10.366;2023-07-30T05:43:05;25.70;65.20
44477;DHT22;30180;44.788;10.366;2023-07-30T05:45:34;25.70;65.20
44477;DHT22;30180;44.788;10.366;2023-07-30T05:48:03;25.70;65.00
44477;DHT22;30180;44.788;10.366;2023-07-30T05:50:31;25.70;65.10
44477;DHT22;30180;44.788;10.366;2023-07-30T05:52:59;25.60;65.10
44477;DHT22;30180;44.788;10.366;2023-07-30T05:55:28;25.60;65.10
44477;DHT22;30180;44.788;10.366;2023-07-30T05:57:58;25.60;65.10
44477;DHT22;30180;44.788;10.366;2023-07-30T06:00:26;25.60;65.10
44477;DHT22;30180;44.788;10.366;2023-07-30T06:02:54;25.60;65.10
44477;DHT22;30180;44.788;10.366;2023-07-30T06:05:23;25.50;65.00
44477;DHT22;30180;44.788;10.366;2023-07-30T06:07:51;25.50;65.00
44477;DHT22;30180;44.788;10.366;2023-07-30T06:10:19;25.50;65.10
44477;DHT22;30180;44.788;10.366;2023-07-30T06:12:48;25.50;65.20
44477;DHT22;30180;44.788;10.366;2023-07-30T06:15:17;25.50;65.20
44477;DHT22;30180;44.788;10.366;2023-07-30T06:17:46;25.50;65.20
44477;DHT22;30180;44.788;10.366;2023-07-30T06:20:14;25.50;65.30
44477;DHT22;30180;44.788;10.366;2023-07-30T06:22:42;25.50;65.30
44477;DHT22;30180;44.788;10.366;2023-07-30T06:25:12;25.50;65.40
44477;DHT22;30180;44.788;10.366;2023-07-30T06:27:40;25.50;65.40
44477;DHT22;30180;44.788;10.366;2023-07-30T06:30:09;25.60;65.40
44477;DHT22;30180;44.788;10.366;2023-07-30T06:32:39;25.60;65.40
44477;DHT22;30180;44.788;10.366;2023-07-30T06:35:08;25.60;65.40
44477;DHT22;30180;44.788;10.366;2023-07-30T06:37:36;25.60;65.50
44477;DHT22;30180;44.788;10.366;2023-07-30T06:40:06;25.60;65.50
44477;DHT22;30180;44.788;10.366;2023-07-30T06:42:34;25.60;65.40
44477;DHT22;30180;44.788;10.366;2023-07-30T06:45:03;25.60;65.50
44477;DHT22;30180;44.788;10.366;2023-07-30T06:47:32;25.60;65.50
44477;DHT22;30180;44.788;10.366;2023-07-30T06:50:05;25.70;65.50
44477;DHT22;30180;44.788;10.366;2023-07-30T06:52:35;25.60;65.50
44477;DHT22;30180;44.788;10.366;2023-07-30T06:55:04;25.70;65.60
44477;DHT22;30180;44.788;10.366;2023-07-30T06:57:33;25.70;65.50
44477;DHT22;30180;44.788;10.366;2023-07-30T07:00:01;25.60;65.50
44477;DHT22;30180;44.788;10.366;2023-07-30T07:02:30;25.70;65.50
44477;DHT22;30180;44.788;10.366;2023-07-30T07:05:00;25.70;65.50
44477;DHT22;30180;44.788;10.366;2023-07-30T07:07:30;25.70;65.50
44477;DHT22;30180;44.788;10.366;2023-07-30T07:09:58;25.70;65.60
44477;DHT22;30180;44.788;10.366;2023-07-30T07:12:27;25.70;65.60
44477;DHT22;30180;44.788;10.366;2023-07-30T07:14:55;25.60;65.50
44477;DHT22;30180;44.788;10.366;2023-07-30T07:17:25;25.70;65.60
44477;DHT22;30180;44.788;10.366;2023-07-30T07:19:54;25.70;66.20
44477;DHT22;30180;44.788;10.366;2023-07-30T07:22:22;25.60;65.40
44477;DHT22;30180;44.788;10.366;2023-07-30T07:24:52;25.70;65.50
44477;DHT22;30180;44.788;10.366;2023-07-30T07:27:21;25.60;65.50
44477;DHT22;30180;44.788;10.366;2023-07-30T07:29:51;25.60;65.50
44477;DHT22;30180;44.788;10.366;2023-07-30T07:32:19;25.70;65.60
44477;DHT22;30180;44.788;10.366;2023-07-30T07:34:48;25.70;66.20
44477;DHT22;30180;44.788;10.366;2023-07-30T07:37:17;25.70;65.60
44477;DHT22;30180;44.788;10.366;2023-07-30T07:39:45;25.70;65.60
44477;DHT22;30180;44.788;10.366;2023-07-30T07:42:15;25.70;65.50
44477;DHT22;30180;44.788;10.366;2023-07-30T07:44:44;25.70;65.50
44477;DHT22;30180;44.788;10.366;2023-07-30T07:47:13;25.70;65.60
44477;DHT22;30180;44.788;10.366;2023-07-30T07:49:41;25.70;65.60
44477;DHT22;30180;44.788;10.366;2023-07-30T07:52:10;25.70;65.60
44477;DHT22;30180;44.788;10.366;2023-07-30T07:54:38;25.70;65.60
44477;DHT22;30180;44.788;10.366;2023-07-30T07:57:08;25.70;65.60
44477;DHT22;30180;44.788;10.366;2023-07-30T07:59:38;25.80;65.60
44477;DHT22;30180;44.788;10.366;2023-07-30T08:02:08;25.80;65.60
44477;DHT22;30180;44.788;10.366;2023-07-30T08:04:37;25.80;65.60
44477;DHT22;30180;44.788;10.366;2023-07-30T08:07:05;25.70;65.60
44477;DHT22;30180;44.788;10.366;2023-07-30T08:09:34;25.70;65.60
44477;DHT22;30180;44.788;10.366;2023-07-30T08:12:05;25.80;65.60
44477;DHT22;30180;44.788;10.366;2023-07-30T08:14:33;25.80;65.70
44477;DHT22;30180;44.788;10.366;2023-07-30T08:17:03;25.80;65.70
44477;DHT22;30180;44.788;10.366;2023-07-30T08:19:32;25.80;65.70
44477;DHT22;30180;44.788;10.366;2023-07-30T08:22:01;25.80;65.60
44477;DHT22;30180;44.788;10.366;2023-07-30T08:24:29;25.80;65.60
44477;DHT22;30180;44.788;10.366;2023-07-30T08:26:57;25.80;65.60
44477;DHT22;30180;44.788;10.366;2023-07-30T08:29:26;25.80;65.60
44477;DHT22;30180;44.788;10.366;2023-07-30T08:31:55;25.90;65.60
44477;DHT22;30180;44.788;10.366;2023-07-30T08:34:25;25.90;65.60
44477;DHT22;30180;44.788;10.366;2023-07-30T08:36:53;25.90;65.60
44477;DHT22;30180;44.788;10.366;2023-07-30T08:39:22;25.90;65.60
44477;DHT22;30180;44.788;10.366;2023-07-30T08:41:50;25.90;65.60
44477;DHT22;30180;44.788;10.366;2023-07-30T08:44:19;25.90;65.60
44477;DHT22;30180;44.788;10.366;2023-07-30T08:46:48;25.90;65.60
44477;DHT22;30180;44.788;10.366;2023-07-30T08:49:20;25.90;65.50
44477;DHT22;30180;44.788;10.366;2023-07-30T08:51:52;25.90;65.50
44477;DHT22;30180;44.788;10.366;2023-07-30T08:54:22;25.90;65.50
44477;DHT22;30180;44.788;10.366;2023-07-30T08:56:51;25.90;65.40
44477;DHT22;30180;44.788;10.366;2023-07-30T08:59:21;25.90;65.50
44477;DHT22;30180;44.788;10.366;2023-07-30T09:01:51;26.00;65.60
44477;DHT22;30180;44.788;10.366;2023-07-30T09:04:21;26.00;65.60
44477;DHT22;30180;44.788;10.366;2023-07-30T09:06:51;26.00;65.50
44477;DHT22;30180;44.788;10.366;2023-07-30T09:09:20;26.00;65.50
44477;DHT22;30180;44.788;10.366;2023-07-30T09:11:51;26.00;65.50
44477;DHT22;30180;44.788;10.366;2023-07-30T09:14:20;26.00;65.50
44477;DHT22;30180;44.788;10.366;2023-07-30T09:16:56;26.00;65.50
44477;DHT22;30180;44.788;10.366;2023-07-30T09:19:24;26.00;65.50
44477;DHT22;30180;44.788;10.366;2023-07-30T09:21:55;26.00;65.50
44477;DHT22;30180;44.788;10.366;2023-07-30T09:24:24;26.00;65.50
44477;DHT22;30180;44.788;10.366;2023-07-30T09:26:52;26.00;65.50
44477;DHT22;30180;44.788;10.366;2023-07-30T09:29:21;26.10;65.40
44477;DHT22;30180;44.788;10.366;2023-07-30T09:31:52;26.10;65.40
44477;DHT22;30180;44.788;10.366;2023-07-30T09:34:23;26.00;65.40
44477;DHT22;30180;44.788;10.366;2023-07-30T09:36:52;26.10;65.40
44477;DHT22;30180;44.788;10.366;2023-07-30T09:39:24;26.10;65.50
44477;DHT22;30180;44.788;10.366;2023-07-30T09:41:59;26.10;65.40
44477;DHT22;30180;44.788;10.366;2023-07-30T09:44:29;26.10;65.50
44477;DHT22;30180;44.788;10.366;2023-07-30T09:47:01;26.10;65.40
44477;DHT22;30180;44.788;10.366;2023-07-30T09:49:32;26.10;65.40
44477;DHT22;30180;44.788;10.366;2023-07-30T09:52:03;26.10;65.40
44477;DHT22;30180;44.788;10.366;2023-07-30T09:54:33;26.10;65.30
44477;DHT22;30180;44.788;10.366;2023-07-30T09:57:03;26.10;65.30
44477;DHT22;30180;44.788;10.366;2023-07-30T09:59:32;26.10;65.30
44477;DHT22;30180;44.788;10.366;2023-07-30T10:02:01;26.10;65.30
44477;DHT22;30180;44.788;10.366;2023-07-30T10:04:31;26.10;65.30
44477;DHT22;30180;44.788;10.366;2023-07-30T10:07:04;26.10;65.30
44477;DHT22;30180;44.788;10.366;2023-07-30T10:09:39;26.10;65.30
44477;DHT22;30180;44.788;10.366;2023-07-30T10:12:11;26.10;65.40
44477;DHT22;30180;44.788;10.366;2023-07-30T10:14:41;26.20;65.40
44477;DHT22;30180;44.788;10.366;2023-07-30T10:17:11;26.30;65.50
44477;DHT22;30180;44.788;10.366;2023-07-30T10:19:39;26.20;65.40
44477;DHT22;30180;44.788;10.366;2023-07-30T10:22:20;26.20;65.40
44477;DHT22;30180;44.788;10.366;2023-07-30T10:24:58;26.20;65.40
44477;DHT22;30180;44.788;10.366;2023-07-30T10:27:36;26.20;65.30
44477;DHT22;30180;44.788;10.366;2023-07-30T10:30:09;26.30;65.30
44477;DHT22;30180;44.788;10.366;2023-07-30T10:32:39;26.20;65.20
44477;DHT22;30180;44.788;10.366;2023-07-30T10:35:07;26.20;65.20
44477;DHT22;30180;44.788;10.366;2023-07-30T10:37:35;26.20;65.20
44477;DHT22;30180;44.788;10.366;2023-07-30T10:40:18;26.20;65.20
44477;DHT22;30180;44.788;10.366;2023-07-30T10:42:46;26.30;65.30
44477;DHT22;30180;44.788;10.366;2023-07-30T10:45:16;26.30;65.30
44477;DHT22;30180;44.788;10.366;2023-07-30T10:47:44;26.30;65.20
44477;DHT22;30180;44.788;10.366;2023-07-30T10:50:13;26.30;65.20
44477;DHT22;30180;44.788;10.366;2023-07-30T10:52:43;26.30;65.20
44477;DHT22;30180;44.788;10.366;2023-07-30T10:55:12;26.30;65.20
44477;DHT22;30180;44.788;10.366;2023-07-30T10:57:42;26.30;65.30
44477;DHT22;30180;44.788;10.366;2023-07-30T11:00:11;26.30;65.30
44477;DHT22;30180;44.788;10.366;2023-07-30T11:02:40;26.30;65.20
44477;DHT22;30180;44.788;10.366;2023-07-30T11:05:12;26.30;65.20
44477;DHT22;30180;44.788;10.366;2023-07-30T11:07:49;26.30;65.30
44477;DHT22;30180;44.788;10.366;2023-07-30T11:10:18;26.40;65.30
44477;DHT22;30180;44.788;10.366;2023-07-30T11:12:48;26.30;65.10
44477;DHT22;30180;44.788;10.366;2023-07-30T11:15:17;26.30;65.20
44477;DHT22;30180;44.788;10.366;2023-07-30T11:17:46;26.30;65.10
44477;DHT22;30180;44.788;10.366;2023-07-30T11:20:24;26.30;65.10
44477;DHT22;30180;44.788;10.366;2023-07-30T11:22:54;26.40;65.20
44477;DHT22;30180;44.788;10.366;2023-07-30T11:25:22;26.40;65.20
44477;DHT22;30180;44.788;10.366;2023-07-30T11:27:52;26.40;65.10
44477;DHT22;30180;44.788;10.366;2023-07-30T11:30:20;26.40;65.10
44477;DHT22;30180;44.788;10.366;2023-07-30T11:32:49;26.40;65.20
44477;DHT22;30180;44.788;10.366;2023-07-30T11:35:17;26.40;65.10
44477;DHT22;30180;44.788;10.366;2023-07-30T11:37:46;26.30;65.10
44477;DHT22;30180;44.788;10.366;2023-07-30T11:40:14;26.40;65.10
44477;DHT22;30180;44.788;10.366;2023-07-30T11:42:43;26.40;65.10
44477;DHT22;30180;44.788;10.366;2023-07-30T11:45:20;26.40;65.40
44477;DHT22;30180;44.788;10.366;2023-07-30T11:47:48;26.40;65.30
44477;DHT22;30180;44.788;10.366;2023-07-30T11:50:17;26.40;65.10
44477;DHT22;30180;44.788;10.366;2023-07-30T11:52:55;26.50;65.10
44477;DHT22;30180;44.788;10.366;2023-07-30T11:55:37;26.50;65.10
44477;DHT22;30180;44.788;10.366;2023-07-30T11:58:05;26.40;65.00
44477;DHT22;30180;44.788;10.366;2023-07-30T12:00:36;26.40;65.00
44477;DHT22;30180;44.788;10.366;2023-07-30T12:03:05;26.40;65.00
44477;DHT22;30180;44.788;10.366;2023-07-30T12:05:35;26.40;65.00
44477;DHT22;30180;44.788;10.366;2023-07-30T12:08:05;26.40;65.00
44477;DHT22;30180;44.788;10.366;2023-07-30T12:10:44;26.40;65.00
44477;DHT22;30180;44.788;10.366;2023-07-30T12:13:15;26.40;65.00
44477;DHT22;30180;44.788;10.366;2023-07-30T12:15:51;26.40;65.00
44477;DHT22;30180;44.788;10.366;2023-07-30T12:18:20;26.40;65.00
44477;DHT22;30180;44.788;10.366;2023-07-30T12:20:48;26.40;65.00
44477;DHT22;30180;44.788;10.366;2023-07-30T12:23:17;26.40;65.00
44477;DHT22;30180;44.788;10.366;2023-07-30T12:25:46;26.40;65.00
44477;DHT22;30180;44.788;10.366;2023-07-30T12:28:14;26.40;65.00
44477;DHT22;30180;44.788;10.366;2023-07-30T12:30:43;26.40;65.00
44477;DHT22;30180;44.788;10.366;2023-07-30T12:33:12;26.50;65.10
44477;DHT22;30180;44.788;10.366;2023-07-30T12:35:41;26.50;65.10
44477;DHT22;30180;44.788;10.366;2023-07-30T12:38:09;26.50;65.20
44477;DHT22;30180;44.788;10.366;2023-07-30T12:40:37;26.50;65.40
44477;DHT22;30180;44.788;10.366;2023-07-30T12:43:06;26.50;65.30
44477;DHT22;30180;44.788;10.366;2023-07-30T12:45:36;26.50;65.20
44477;DHT22;30180;44.788;10.366;2023-07-30T12:48:05;26.60;65.30
44477;DHT22;30180;44.788;10.366;2023-07-30T12:50:36;26.60;65.10
44477;DHT22;30180;44.788;10.366;2023-07-30T12:53:04;26.60;65.10
44477;DHT22;30180;44.788;10.366;2023-07-30T12:55:33;26.60;65.10
44477;DHT22;30180;44.788;10.366;2023-07-30T12:58:01;26.60;65.00
44477;DHT22;30180;44.788;10.366;2023-07-30T13:00:31;26.60;65.10
44477;DHT22;30180;44.788;10.366;2023-07-30T13:03:00;26.50;65.00
44477;DHT22;30180;44.788;10.366;2023-07-30T13:05:29;26.60;65.00
44477;DHT22;30180;44.788;10.366;2023-07-30T13:07:59;26.60;65.00
44477;DHT22;30180;44.788;10.366;2023-07-30T13:10:29;26.60;65.10
44477;DHT22;30180;44.788;10.366;2023-07-30T13:12:58;26.60;65.20
44477;DHT22;30180;44.788;10.366;2023-07-30T13:15:26;26.60;65.10
44477;DHT22;30180;44.788;10.366;2023-07-30T13:17:55;26.60;65.00
44477;DHT22;30180;44.788;10.366;2023-07-30T13:20:23;26.60;65.00
44477;DHT22;30180;44.788;10.366;2023-07-30T13:22:51;26.60;65.00
44477;DHT22;30180;44.788;10.366;2023-07-30T13:25:22;26.60;65.00
44477;DHT22;30180;44.788;10.366;2023-07-30T13:27:51;26.60;65.00
44477;DHT22;30180;44.788;10.366;2023-07-30T13:30:19;26.60;65.10
44477;DHT22;30180;44.788;10.366;2023-07-30T13:32:48;26.60;65.00
44477;DHT22;30180;44.788;10.366;2023-07-30T13:35:16;26.60;65.00
44477;DHT22;30180;44.788;10.366;2023-07-30T13:37:44;26.60;64.90
44477;DHT22;30180;44.788;10.366;2023-07-30T13:40:13;26.60;65.40
44477;DHT22;30180;44.788;10.366;2023-07-30T13:42:42;26.60;65.10
44477;DHT22;30180;44.788;10.366;2023-07-30T13:45:11;26.60;65.10
44477;DHT22;30180;44.788;10.366;2023-07-30T13:47:39;26.70;65.00
44477;DHT22;30180;44.788;10.366;2023-07-30T13:50:09;26.70;65.00
44477;DHT22;30180;44.788;10.366;2023-07-30T13:52:38;26.60;64.90
44477;DHT22;30180;44.788;10.366;2023-07-30T13:55:07;26.60;64.90
44477;DHT22;30180;44.788;10.366;2023-07-30T13:57:35;26.60;64.90
44477;DHT22;30180;44.788;10.366;2023-07-30T14:00:06;26.60;64.90
44477;DHT22;30180;44.788;10.366;2023-07-30T14:02:35;26.60;64.80
44477;DHT22;30180;44.788;10.366;2023-07-30T14:05:04;26.60;64.80
44477;DHT22;30180;44.788;10.366;2023-07-30T14:07:32;26.60;64.80
44477;DHT22;30180;44.788;10.366;2023-07-30T14:10:00;26.60;64.90
44477;DHT22;30180;44.788;10.366;2023-07-30T14:12:29;26.60;64.80
44477;DHT22;30180;44.788;10.366;2023-07-30T14:14:57;26.60;64.80
44477;DHT22;30180;44.788;10.366;2023-07-30T14:17:27;26.60;64.60
44477;DHT22;30180;44.788;10.366;2023-07-30T14:19:55;26.60;64.80
44477;DHT22;30180;44.788;10.366;2023-07-30T14:22:24;26.60;64.90
44477;DHT22;30180;44.788;10.366;2023-07-30T14:24:52;26.60;64.80
44477;DHT22;30180;44.788;10.366;2023-07-30T14:27:20;26.60;64.80
44477;DHT22;30180;44.788;10.366;2023-07-30T14:29:49;26.70;64.80
44477;DHT22;30180;44.788;10.366;2023-07-30T14:32:18;26.60;64.60
44477;DHT22;30180;44.788;10.366;2023-07-30T14:34:48;26.60;64.70
44477;DHT22;30180;44.788;10.366;2023-07-30T14:37:16;26.70;64.90
44477;DHT22;30180;44.788;10.366;2023-07-30T14:39:45;26.70;64.70
44477;DHT22;30180;44.788;10.366;2023-07-30T14:42:14;26.70;64.60
44477;DHT22;30180;44.788;10.366;2023-07-30T14:44:42;26.70;64.60
44477;DHT22;30180;44.788;10.366;2023-07-30T14:47:10;26.70;64.70
44477;DHT22;30180;44.788;10.366;2023-07-30T14:49:39;26.60;64.50
44477;DHT22;30180;44.788;10.366;2023-07-30T14:52:09;26.60;64.50
44477;DHT22;30180;44.788;10.366;2023-07-30T14:54:37;26.60;64.50
44477;DHT22;30180;44.788;10.366;2023-07-30T14:57:06;26.70;64.60
44477;DHT22;30180;44.788;10.366;2023-07-30T14:59:34;26.60;64.50
44477;DHT22;30180;44.788;10.366;2023-07-30T15:02:03;26.60;64.60
44477;DHT22;30180;44.788;10.366;2023-07-30T15:04:31;26.60;64.60
44477;DHT22;30180;44.788;10.366;2023-07-30T15:06:59;26.60;64.60
44477;DHT22;30180;44.788;10.366;2023-07-30T15:09:29;26.60;64.50
44477;DHT22;30180;44.788;10.366;2023-07-30T15:12:01;26.70;64.60
44477;DHT22;30180;44.788;10.366;2023-07-30T15:14:31;26.70;64.50
44477;DHT22;30180;44.788;10.366;2023-07-30T15:16:59;26.70;64.50
44477;DHT22;30180;44.788;10.366;2023-07-30T15:19:27;26.60;64.50
44477;DHT22;30180;44.788;10.366;2023-07-30T15:21:55;26.70;64.50
44477;DHT22;30180;44.788;10.366;2023-07-30T15:24:24;26.70;64.50
44477;DHT22;30180;44.788;10.366;2023-07-30T15:26:53;26.70;64.40